createdAt,value
2023-05-16T00:03:26.006Z,13.65
2023-05-16T00:08:27.712Z,13.61
2023-05-16T00:13:29.756Z,13.44
2023-05-16T00:18:31.369Z,13.14
2023-05-16T00:23:33.296Z,13.00
2023-05-16T00:28:34.789Z,12.87
2023-05-16T00:33:36.420Z,12.83
2023-05-16T00:38:37.985Z,12.83
2023-05-16T00:43:40.284Z,12.72
2023-05-16T00:48:42.003Z,12.71
2023-05-16T00:53:43.836Z,12.68
2023-05-16T00:58:45.521Z,12.67
2023-05-16T01:03:47.988Z,12.62
2023-05-16T01:08:49.807Z,12.54
2023-05-16T01:14:17.069Z,12.65
2023-05-16T01:19:24.596Z,12.63
2023-05-16T01:24:58.828Z,12.43
2023-05-16T01:30:01.154Z,12.47
2023-05-16T01:35:02.717Z,12.38
2023-05-16T01:40:07.451Z,12.33
2023-05-16T01:45:15.480Z,12.24
2023-05-16T01:50:21.056Z,12.37
2023-05-16T01:55:46.032Z,12.32
2023-05-16T02:00:47.624Z,12.17
2023-05-16T02:05:49.113Z,12.23
2023-05-16T02:10:50.652Z,12.02
2023-05-16T02:15:52.220Z,11.77
2023-05-16T02:20:53.968Z,11.76
2023-05-16T02:25:55.593Z,11.66
2023-05-16T02:30:58.714Z,11.57
2023-05-16T02:36:00.276Z,11.57
2023-05-16T02:41:02.030Z,11.43
2023-05-16T02:46:30.407Z,11.30
2023-05-16T02:51:32.029Z,11.17
2023-05-16T02:56:33.537Z,10.93
2023-05-16T03:01:35.062Z,10.79
2023-05-16T03:06:36.616Z,10.84
2023-05-16T03:11:38.164Z,10.80
2023-05-16T03:16:40.146Z,10.64
2023-05-16T03:21:42.026Z,10.64
2023-05-16T03:26:43.763Z,10.65
2023-05-16T03:31:45.434Z,10.59
2023-05-16T03:36:51.017Z,10.56
2023-05-16T03:41:52.500Z,10.58
2023-05-16T03:46:54.440Z,10.64
2023-05-16T03:51:55.971Z,10.61
2023-05-16T03:56:57.550Z,10.54
2023-05-16T04:01:59.066Z,10.67
2023-05-16T04:07:02.115Z,10.53
2023-05-16T04:12:03.834Z,10.43
2023-05-16T04:17:05.441Z,10.48
2023-05-16T04:22:07.074Z,10.33
2023-05-16T04:27:08.632Z,10.32
2023-05-16T04:32:10.135Z,10.25
2023-05-16T04:37:11.630Z,10.31
2023-05-16T04:42:13.149Z,10.38
2023-05-16T04:47:14.680Z,10.43
2023-05-16T04:52:16.228Z,10.39
2023-05-16T04:57:17.803Z,10.25
2023-05-16T05:02:19.335Z,10.32
2023-05-16T05:07:20.876Z,10.28
2023-05-16T05:12:22.692Z,10.32
2023-05-16T05:17:24.355Z,10.23
2023-05-16T05:22:26.006Z,10.18
2023-05-16T05:27:27.577Z,10.30
2023-05-16T05:32:29.298Z,10.32
2023-05-16T05:37:30.805Z,10.27
2023-05-16T05:42:33.015Z,10.33
2023-05-16T05:47:34.728Z,10.26
2023-05-16T05:52:36.698Z,11.22
2023-05-16T05:57:38.317Z,11.86
2023-05-16T06:02:39.989Z,12.52
2023-05-16T06:07:41.661Z,12.70
2023-05-16T06:12:43.158Z,12.78
2023-05-16T06:17:44.746Z,14.03
2023-05-16T06:22:47.778Z,13.85
2023-05-16T06:27:49.298Z,13.34
2023-05-16T06:32:50.852Z,13.21
2023-05-16T06:37:52.337Z,12.79
2023-05-16T06:42:53.891Z,13.02
2023-05-16T06:47:57.502Z,12.80
2023-05-16T06:52:59.287Z,13.65
2023-05-16T06:58:00.894Z,14.30
2023-05-16T07:03:03.087Z,14.51
2023-05-16T07:08:07.580Z,14.92
2023-05-16T07:13:09.563Z,14.99
2023-05-16T07:18:11.202Z,14.68
2023-05-16T07:23:12.917Z,15.50
2023-05-16T07:28:14.447Z,14.64
2023-05-16T07:33:16.055Z,15.15
2023-05-16T07:38:17.618Z,14.21
2023-05-16T07:43:19.176Z,15.39
2023-05-16T07:48:20.764Z,15.69
2023-05-16T07:53:22.408Z,16.98
2023-05-16T07:58:24.015Z,16.24
2023-05-16T08:03:25.995Z,16.48
2023-05-16T08:08:27.721Z,14.32
2023-05-16T08:13:29.647Z,13.86
2023-05-16T08:18:31.395Z,13.66
2023-05-16T08:23:33.529Z,16.09
2023-05-16T08:28:35.054Z,16.91
2023-05-16T08:33:36.635Z,15.88
2023-05-16T08:38:38.172Z,18.55
2023-05-16T08:43:39.854Z,17.28
2023-05-16T08:48:45.967Z,18.86
2023-05-16T08:54:11.222Z,16.43
2023-05-16T08:59:13.430Z,16.51
2023-05-16T09:04:16.350Z,16.72
2023-05-16T09:09:18.089Z,15.99
2023-05-16T09:14:19.641Z,15.64
2023-05-16T09:19:23.241Z,15.40
2023-05-16T09:24:25.980Z,15.65
2023-05-16T09:29:27.540Z,15.72
2023-05-16T09:34:29.132Z,17.95
2023-05-16T09:39:30.676Z,17.87
2023-05-16T09:44:32.336Z,16.32
2023-05-16T09:49:34.041Z,18.76
2023-05-16T09:54:35.797Z,20.07
2023-05-16T09:59:38.715Z,18.96
2023-05-16T10:04:40.387Z,18.17
2023-05-16T10:09:43.713Z,19.91
2023-05-16T10:14:46.841Z,20.34
2023-05-16T10:19:49.197Z,19.07
2023-05-16T10:25:06.462Z,16.98
2023-05-16T10:30:09.761Z,19.12
2023-05-16T10:35:11.693Z,17.41
2023-05-16T10:40:13.462Z,18.45
2023-05-16T10:45:18.530Z,19.57
2023-05-16T10:50:40.300Z,17.59
2023-05-16T10:56:06.491Z,19.64
2023-05-16T11:01:35.597Z,20.39
2023-05-16T11:06:43.221Z,21.81
2023-05-16T11:11:49.453Z,20.04
2023-05-16T11:16:53.363Z,21.61
2023-05-16T11:22:07.985Z,21.09
2023-05-16T11:27:14.173Z,19.21
2023-05-16T11:32:19.635Z,20.20
2023-05-16T11:37:21.205Z,20.98
2023-05-16T11:42:22.787Z,20.33
2023-05-16T11:47:24.679Z,23.24
2023-05-16T11:52:26.353Z,21.70
2023-05-16T11:57:27.996Z,20.04
2023-05-16T12:02:29.635Z,18.99
2023-05-16T12:07:31.361Z,18.69
2023-05-16T12:12:33.181Z,18.25
2023-05-16T12:17:36.460Z,20.49
2023-05-16T12:22:44.699Z,21.87
2023-05-16T12:27:46.701Z,21.69
2023-05-16T12:32:53.511Z,21.43
2023-05-16T12:37:55.237Z,22.74
2023-05-16T12:42:57.593Z,22.04
2023-05-16T12:48:05.223Z,21.67
2023-05-16T12:53:12.162Z,22.17
2023-05-16T12:58:13.881Z,21.32
2023-05-16T13:03:15.652Z,19.80
2023-05-16T13:08:17.282Z,19.19
2023-05-16T13:13:28.765Z,19.39
2023-05-16T13:18:37.001Z,18.42
2023-05-16T13:23:38.677Z,19.68
2023-05-16T13:28:40.316Z,19.97
2023-05-16T13:33:41.906Z,20.90
2023-05-16T13:38:43.569Z,22.51
2023-05-16T13:43:45.341Z,22.72
2023-05-16T13:48:46.891Z,20.95
2023-05-16T13:53:48.640Z,20.46
2023-05-16T13:59:02.153Z,19.53
2023-05-16T14:04:05.824Z,21.45
2023-05-16T14:09:07.449Z,22.35
2023-05-16T14:14:38.134Z,22.62
2023-05-16T14:19:39.681Z,22.31
2023-05-16T14:24:41.344Z,21.43
2023-05-16T14:29:43.179Z,19.91
2023-05-16T14:34:44.804Z,19.04
2023-05-16T14:39:47.239Z,19.21
2023-05-16T14:44:48.873Z,21.17
2023-05-16T14:49:50.618Z,22.85
2023-05-16T14:54:52.232Z,20.92
2023-05-16T14:59:53.790Z,19.53
2023-05-16T15:04:55.345Z,18.61
2023-05-16T15:09:56.952Z,18.42
2023-05-16T15:14:58.501Z,18.23
2023-05-16T15:20:00.097Z,18.08
2023-05-16T15:25:02.009Z,17.70
2023-05-16T15:30:04.106Z,18.13
2023-05-16T15:35:06.245Z,19.71
2023-05-16T15:40:08.457Z,19.69
2023-05-16T15:45:11.700Z,19.23
2023-05-16T15:50:13.791Z,18.52
2023-05-16T15:55:15.438Z,18.12
2023-05-16T16:00:17.457Z,17.89
2023-05-16T16:05:19.073Z,17.58
2023-05-16T16:10:22.553Z,17.78
2023-05-16T16:15:24.264Z,18.07
2023-05-16T16:20:26.186Z,20.08
2023-05-16T16:25:27.985Z,19.74
2023-05-16T16:30:29.869Z,18.74
2023-05-16T16:35:31.503Z,17.86
2023-05-16T16:40:33.188Z,17.45
2023-05-16T16:45:34.733Z,17.67
2023-05-16T16:50:36.489Z,17.59
2023-05-16T16:55:40.596Z,17.38
2023-05-16T17:00:42.676Z,18.60
2023-05-16T17:05:44.423Z,17.73
2023-05-16T17:10:46.049Z,17.11
2023-05-16T17:15:47.705Z,16.87
2023-05-16T17:20:49.234Z,16.79
2023-05-16T17:25:50.816Z,16.54
2023-05-16T17:30:52.407Z,16.41
2023-05-16T17:35:53.956Z,16.40
2023-05-16T17:40:55.520Z,16.07
2023-05-16T17:45:57.205Z,15.85
2023-05-16T17:50:59.129Z,15.66
2023-05-16T17:56:00.686Z,15.52
2023-05-16T18:01:02.952Z,15.29
2023-05-16T18:06:04.883Z,15.28
2023-05-16T18:11:06.613Z,15.29
2023-05-16T18:16:08.194Z,15.20
2023-05-16T18:21:10.007Z,15.11
2023-05-16T18:26:11.696Z,15.03
2023-05-16T18:31:13.375Z,14.92
2023-05-16T18:36:15.168Z,14.87
2023-05-16T18:41:16.902Z,14.78
2023-05-16T18:46:18.867Z,14.84
2023-05-16T18:51:20.473Z,14.61
2023-05-16T18:56:22.172Z,14.64
2023-05-16T19:01:23.943Z,14.63
2023-05-16T19:06:25.675Z,14.54
2023-05-16T19:11:27.386Z,14.51
2023-05-16T19:16:29.096Z,14.46
2023-05-16T19:21:31.797Z,14.54
2023-05-16T19:26:33.485Z,14.49
2023-05-16T19:31:35.164Z,14.41
2023-05-16T19:36:36.786Z,14.43
2023-05-16T19:41:38.482Z,14.39
2023-05-16T19:46:40.108Z,14.41
2023-05-16T19:51:42.386Z,14.35
2023-05-16T19:56:44.305Z,14.30
2023-05-16T20:01:46.048Z,14.29
2023-05-16T20:06:47.647Z,14.20
2023-05-16T20:11:49.324Z,14.29
2023-05-16T20:16:50.956Z,14.17
2023-05-16T20:21:52.737Z,14.20
2023-05-16T20:26:54.338Z,14.15
2023-05-16T20:31:56.102Z,14.19
2023-05-16T20:36:58.142Z,14.03
2023-05-16T20:41:59.814Z,14.02
2023-05-16T20:47:01.491Z,13.90
2023-05-16T20:52:03.847Z,13.87
2023-05-16T20:57:05.664Z,13.81
2023-05-16T21:02:07.493Z,13.51
2023-05-16T21:07:09.097Z,13.29
2023-05-16T21:12:10.685Z,13.27
2023-05-16T21:17:12.337Z,13.46
2023-05-16T21:22:14.084Z,13.46
2023-05-16T21:27:15.733Z,13.27
2023-05-16T21:32:17.403Z,13.24
2023-05-16T21:37:19.042Z,13.27
2023-05-16T21:42:20.659Z,13.15
2023-05-16T21:47:22.401Z,12.85
2023-05-16T21:52:24.124Z,12.49
2023-05-16T21:57:25.786Z,12.15
2023-05-16T22:02:27.367Z,11.91
2023-05-16T22:07:29.178Z,11.93
2023-05-16T22:12:30.813Z,11.92
2023-05-16T22:17:32.555Z,11.80
2023-05-16T22:22:34.259Z,11.74
2023-05-16T22:27:35.808Z,11.68
2023-05-16T22:32:37.515Z,11.45
2023-05-16T22:37:39.274Z,11.19
2023-05-16T22:42:40.830Z,11.02
2023-05-16T22:47:42.444Z,11.15
2023-05-16T22:52:44.186Z,11.08
2023-05-16T22:57:45.772Z,11.07
2023-05-16T23:02:47.634Z,11.03
2023-05-16T23:07:49.261Z,11.01
2023-05-16T23:12:50.850Z,10.79
2023-05-16T23:17:52.516Z,10.61
2023-05-16T23:22:54.173Z,10.52
2023-05-16T23:27:55.698Z,10.45
2023-05-16T23:32:57.343Z,10.28
2023-05-16T23:37:58.947Z,10.09
2023-05-16T23:43:00.681Z,9.88
2023-05-16T23:48:02.349Z,9.69
2023-05-16T23:53:04.131Z,9.61
2023-05-16T23:58:05.698Z,9.47
